Airport ID:KMHV
Update Time (UTC):19/01/2019 13:29
Wind Speed (Knots):2
Wind Direction (Magnetic):150
Temperature (°C):5
Dew Point (°C):3
Humidity (%):89
Altimeter (inHg):30.35
Density Altitude (Feet):
Visibility (Miles):10+
Clouds (Hundreds of feet):CLR
Present Weather:
METAR:METAR KMHV 191320Z AUTO 15005KT 10SM FEW046 05/03 A3035 RMK A01

The data displayed is for advisory purposes only and is not to be used for flight planning or operations.

This page is not automatically refreshed. Reload the page to see current data.